< < Back
Terminal Aerodrome Forecast


Current Version              Previous Versions:   1  2  3  4  5  6  7  8  9  

Terminal Aerodrome Forecast

662
FTUS42 KGSP 010859 AAA
TAFCLT
TAF AMD
KCLT 010859Z 0109/0206 15014KT P6SM OVC006
      TEMPO 0111/0114 5SM -SHRA BR SCT008 OVC012
     FM011400 18009KT P6SM SCT008 BKN012
     FM011700 19012G18KT P6SM OVC020
      TEMPO 0119/0123 3SM TSRA OVC015CB
     FM012300 21008KT P6SM VCSH BKN040=



Latest METAR

522
SAUS70 KWBC 011700 RRK
MTRCLT
METAR KCLT 011652Z 17006KT 10SM BKN013 BKN100 22/18 A3006 RMK AO2 SLP174
T02220183


USA.gov is the U.S. government's official web portal to all federal, state and local government web resources and services.